createdAt,value
2018-12-26T00:02:25.780Z,36.60
2018-12-26T00:04:54.835Z,33.03
2018-12-26T00:07:23.930Z,30.27
2018-12-26T00:09:53.408Z,33.13
2018-12-26T00:12:22.505Z,33.17
2018-12-26T00:14:51.280Z,31.40
2018-12-26T00:17:20.532Z,36.20
2018-12-26T00:19:49.603Z,33.23
2018-12-26T00:22:18.426Z,30.77
2018-12-26T00:24:47.238Z,30.83
2018-12-26T00:27:16.466Z,34.77
2018-12-26T00:29:45.240Z,30.63
2018-12-26T00:32:14.045Z,28.27
2018-12-26T00:34:43.137Z,35.10
2018-12-26T00:37:12.451Z,31.57
2018-12-26T00:39:41.782Z,33.50
2018-12-26T00:42:10.670Z,35.20
2018-12-26T00:44:39.538Z,39.40
2018-12-26T00:47:10.038Z,32.63
2018-12-26T00:49:39.186Z,30.80
2018-12-26T00:52:07.977Z,33.40
2018-12-26T00:54:36.881Z,36.63
2018-12-26T00:57:05.680Z,32.90
2018-12-26T00:59:35.082Z,32.30
2018-12-26T01:02:03.879Z,32.17
2018-12-26T01:04:32.967Z,31.90
2018-12-26T01:07:01.764Z,33.83
2018-12-26T01:09:30.706Z,33.53
2018-12-26T01:12:00.149Z,30.67
2018-12-26T01:14:28.932Z,29.93
2018-12-26T01:16:57.722Z,34.43
2018-12-26T01:19:26.811Z,32.93
2018-12-26T01:21:56.381Z,33.87
2018-12-26T01:24:25.637Z,35.47
2018-12-26T01:26:54.593Z,30.37
2018-12-26T01:29:23.369Z,32.00
2018-12-26T01:31:52.194Z,31.17
2018-12-26T01:34:21.488Z,32.80
2018-12-26T01:36:50.281Z,34.40
2018-12-26T01:39:19.049Z,31.57
2018-12-26T01:41:48.109Z,31.57
2018-12-26T01:44:17.212Z,28.77
2018-12-26T01:46:46.424Z,28.83
2018-12-26T01:49:15.332Z,29.10
2018-12-26T01:51:44.431Z,28.57
2018-12-26T01:54:13.501Z,29.83
2018-12-26T01:56:42.349Z,28.73
2018-12-26T01:59:11.205Z,29.30
2018-12-26T02:01:40.898Z,30.27
2018-12-26T02:04:09.763Z,29.40
2018-12-26T02:06:39.160Z,28.17
2018-12-26T02:09:08.667Z,28.10
2018-12-26T02:11:37.505Z,28.17
2018-12-26T02:14:06.560Z,28.90
2018-12-26T02:16:35.483Z,28.63
2018-12-26T02:19:04.482Z,30.30
2018-12-26T02:21:33.634Z,28.40
2018-12-26T02:24:02.785Z,28.40
2018-12-26T02:26:36.401Z,25.70
2018-12-26T02:29:02.781Z,26.73
2018-12-26T02:31:31.829Z,29.67
2018-12-26T02:34:00.893Z,28.67
2018-12-26T02:36:29.802Z,27.73
2018-12-26T02:38:58.581Z,26.43
2018-12-26T02:41:28.179Z,27.60
2018-12-26T02:43:56.955Z,28.70
2018-12-26T02:46:25.935Z,28.53
2018-12-26T02:48:54.756Z,30.27
2018-12-26T02:51:23.518Z,28.73
2018-12-26T02:53:52.933Z,30.23
2018-12-26T02:56:21.728Z,26.30
2018-12-26T02:58:50.528Z,29.37
2018-12-26T03:01:20.577Z,25.67
2018-12-26T03:03:49.833Z,25.63
2018-12-26T03:06:18.626Z,25.50
2018-12-26T03:08:47.854Z,26.97
2018-12-26T03:11:16.619Z,27.77
2018-12-26T03:13:45.926Z,27.23
2018-12-26T03:16:14.745Z,26.70
2018-12-26T03:18:43.678Z,29.10
2018-12-26T03:21:12.539Z,28.47
2018-12-26T03:23:41.346Z,27.77
2018-12-26T03:26:10.761Z,27.83
2018-12-26T03:28:39.869Z,27.80
2018-12-26T03:31:08.663Z,28.23
2018-12-26T03:33:38.242Z,28.37
2018-12-26T03:36:07.455Z,30.50
2018-12-26T03:38:36.309Z,29.83
2018-12-26T03:41:05.596Z,28.63
2018-12-26T03:43:34.553Z,28.57
2018-12-26T03:46:03.532Z,28.57
2018-12-26T03:48:32.929Z,27.93
2018-12-26T03:51:01.865Z,26.33
2018-12-26T03:53:30.757Z,29.03
2018-12-26T03:55:59.698Z,27.70
2018-12-26T03:58:28.698Z,26.73
2018-12-26T04:00:57.563Z,24.20
2018-12-26T04:03:26.442Z,21.50
2018-12-26T04:05:55.303Z,26.23
2018-12-26T04:08:24.405Z,24.03
2018-12-26T04:10:53.451Z,24.40
2018-12-26T04:13:22.412Z,24.20
2018-12-26T04:15:51.736Z,24.27
2018-12-26T04:18:21.681Z,24.40
2018-12-26T04:20:50.528Z,25.53
2018-12-26T04:23:19.554Z,24.97
2018-12-26T04:25:48.654Z,27.43
2018-12-26T04:28:17.424Z,25.67
2018-12-26T04:30:46.570Z,25.30
2018-12-26T04:33:15.838Z,28.27
2018-12-26T04:35:44.671Z,26.80
2018-12-26T04:38:13.817Z,24.67
2018-12-26T04:40:43.037Z,24.60
2018-12-26T04:43:12.217Z,26.43
2018-12-26T04:45:41.010Z,24.27
2018-12-26T04:48:10.093Z,25.73
2018-12-26T04:50:38.891Z,25.27
2018-12-26T04:53:07.913Z,24.90
2018-12-26T04:55:36.699Z,25.30
2018-12-26T04:58:05.471Z,27.37
2018-12-26T05:00:34.309Z,23.97
2018-12-26T05:03:03.124Z,24.83
2018-12-26T05:05:32.098Z,26.67
2018-12-26T05:08:01.407Z,26.53
2018-12-26T05:10:30.192Z,24.10
2018-12-26T05:12:59.458Z,25.50
2018-12-26T05:15:28.333Z,25.97
2018-12-26T05:17:57.680Z,25.27
2018-12-26T05:20:26.553Z,24.50
2018-12-26T05:22:55.676Z,22.40
2018-12-26T05:25:24.545Z,25.43
2018-12-26T05:27:53.652Z,24.77
2018-12-26T05:30:22.865Z,26.10
2018-12-26T05:32:52.037Z,26.07
2018-12-26T05:35:21.211Z,26.87
2018-12-26T05:37:50.126Z,25.00
2018-12-26T05:40:19.236Z,24.60
2018-12-26T05:42:48.345Z,25.33
2018-12-26T05:45:17.209Z,23.30
2018-12-26T05:47:45.989Z,25.60
2018-12-26T05:50:15.253Z,22.43
2018-12-26T05:52:44.697Z,25.07
2018-12-26T05:55:13.493Z,24.47
2018-12-26T05:57:43.174Z,24.10
2018-12-26T06:00:12.133Z,25.23
2018-12-26T06:02:41.305Z,27.00
2018-12-26T06:05:10.117Z,27.97
2018-12-26T06:07:39.228Z,26.80
2018-12-26T06:10:08.361Z,27.33
2018-12-26T06:12:37.451Z,24.63
2018-12-26T06:15:06.388Z,27.53
2018-12-26T06:17:35.191Z,27.87
2018-12-26T06:20:04.434Z,28.10
2018-12-26T06:22:33.351Z,26.20
2018-12-26T06:25:02.787Z,26.67
2018-12-26T06:27:31.658Z,24.97
2018-12-26T06:30:00.776Z,26.47
2018-12-26T06:32:29.877Z,25.03
2018-12-26T06:34:59.084Z,27.27
2018-12-26T06:37:28.248Z,23.63
2018-12-26T06:39:57.033Z,23.97
2018-12-26T06:42:25.830Z,20.93
2018-12-26T06:44:54.837Z,21.83
2018-12-26T06:47:23.618Z,22.57
2018-12-26T06:49:52.398Z,22.07
2018-12-26T06:52:21.618Z,20.90
2018-12-26T06:54:50.422Z,22.30
2018-12-26T06:57:19.191Z,23.03
2018-12-26T06:59:48.009Z,22.13
2018-12-26T07:02:17.145Z,25.67
2018-12-26T07:04:46.266Z,22.83
2018-12-26T07:07:15.365Z,23.53
2018-12-26T07:09:44.751Z,22.17
2018-12-26T07:12:13.901Z,25.90
2018-12-26T07:14:42.712Z,22.17
2018-12-26T07:17:11.533Z,24.17
2018-12-26T07:19:40.446Z,21.97
2018-12-26T07:22:09.585Z,24.90
2018-12-26T07:24:38.489Z,23.47
2018-12-26T07:27:07.595Z,23.03
2018-12-26T07:29:36.400Z,23.03
2018-12-26T07:32:05.169Z,24.20
2018-12-26T07:34:41.988Z,21.30
2018-12-26T07:37:04.801Z,26.00
2018-12-26T07:39:33.649Z,23.23
2018-12-26T07:42:02.572Z,25.17
2018-12-26T07:44:31.357Z,23.23
2018-12-26T07:47:00.516Z,24.77
2018-12-26T07:49:30.586Z,20.03
2018-12-26T07:51:59.741Z,23.90
2018-12-26T07:54:28.582Z,23.87
2018-12-26T07:56:57.465Z,23.63
2018-12-26T07:59:26.664Z,24.80
2018-12-26T08:01:55.560Z,23.50
2018-12-26T08:04:24.397Z,25.67
2018-12-26T08:06:53.585Z,24.93
2018-12-26T08:09:22.680Z,20.83
2018-12-26T08:11:51.496Z,24.40
2018-12-26T08:14:20.984Z,21.77
2018-12-26T08:16:49.775Z,22.03
2018-12-26T08:19:18.914Z,23.40
2018-12-26T08:21:47.808Z,20.60
2018-12-26T08:24:17.224Z,20.87
2018-12-26T08:26:46.296Z,22.43
2018-12-26T08:29:15.106Z,24.63
2018-12-26T08:31:44.333Z,26.80
2018-12-26T08:34:13.426Z,22.80
2018-12-26T08:36:43.446Z,23.77
2018-12-26T08:39:12.317Z,25.07
2018-12-26T08:41:41.269Z,22.37
2018-12-26T08:44:10.100Z,25.87
2018-12-26T08:46:39.386Z,21.07
2018-12-26T08:49:08.569Z,23.10
2018-12-26T08:51:37.357Z,20.47
2018-12-26T08:54:06.157Z,22.27
2018-12-26T08:56:35.125Z,22.30
2018-12-26T08:59:04.279Z,18.63
2018-12-26T09:01:33.128Z,20.60
2018-12-26T09:04:02.009Z,21.23
2018-12-26T09:06:30.821Z,20.17
2018-12-26T09:08:59.882Z,23.50
2018-12-26T09:11:28.817Z,23.53
2018-12-26T09:13:57.672Z,21.77
2018-12-26T09:16:26.798Z,22.90
2018-12-26T09:18:58.541Z,23.50
2018-12-26T09:21:27.392Z,18.80
2018-12-26T09:23:56.229Z,22.00
2018-12-26T09:26:25.281Z,21.13
2018-12-26T09:28:54.097Z,22.63
2018-12-26T09:31:23.245Z,21.33
2018-12-26T09:33:52.276Z,19.67
2018-12-26T09:36:21.158Z,20.13
2018-12-26T09:38:50.299Z,20.77
2018-12-26T09:41:19.210Z,21.20
2018-12-26T09:43:48.118Z,23.77
2018-12-26T09:46:17.108Z,20.87
2018-12-26T09:48:45.912Z,19.43
2018-12-26T09:51:14.705Z,21.50
2018-12-26T09:53:43.542Z,23.20
2018-12-26T09:56:12.404Z,21.00
2018-12-26T09:58:41.177Z,21.13
2018-12-26T10:01:09.994Z,21.00
2018-12-26T10:03:38.889Z,19.60
2018-12-26T10:06:07.689Z,21.23
2018-12-26T10:08:36.533Z,20.13
2018-12-26T10:11:05.392Z,18.67
2018-12-26T10:13:34.561Z,20.27
2018-12-26T10:16:04.008Z,19.67
2018-12-26T10:18:32.955Z,19.70
2018-12-26T10:21:01.836Z,18.63
2018-12-26T10:23:30.696Z,18.37
2018-12-26T10:25:59.516Z,17.67
2018-12-26T10:28:28.392Z,17.67
2018-12-26T10:30:57.209Z,19.27
2018-12-26T10:33:26.523Z,19.00
2018-12-26T10:35:55.340Z,19.77
2018-12-26T10:38:24.148Z,19.07
2018-12-26T10:40:53.004Z,21.13
2018-12-26T10:43:21.927Z,18.83
2018-12-26T10:45:51.168Z,16.70
2018-12-26T10:48:20.074Z,18.67
2018-12-26T10:50:48.932Z,17.60
2018-12-26T10:53:17.888Z,17.87
2018-12-26T10:55:46.675Z,16.50
2018-12-26T10:58:15.548Z,17.87
2018-12-26T11:00:44.513Z,18.40
2018-12-26T11:03:13.453Z,19.47
2018-12-26T11:05:42.418Z,18.07
2018-12-26T11:08:11.378Z,17.63
2018-12-26T11:10:40.309Z,17.40
2018-12-26T11:13:09.120Z,20.50
2018-12-26T11:15:37.905Z,18.67
2018-12-26T11:18:07.112Z,18.77
2018-12-26T11:20:36.030Z,17.83
2018-12-26T11:23:04.905Z,16.33
2018-12-26T11:25:33.819Z,16.67
2018-12-26T11:28:02.748Z,17.93
2018-12-26T11:30:31.533Z,19.70
2018-12-26T11:33:01.472Z,19.20
2018-12-26T11:35:30.692Z,22.67
2018-12-26T11:37:59.583Z,19.23
2018-12-26T11:40:28.625Z,18.03
2018-12-26T11:42:57.950Z,17.60
2018-12-26T11:45:26.837Z,20.27
2018-12-26T11:47:55.860Z,19.50
2018-12-26T11:50:24.741Z,19.57
2018-12-26T11:52:54.969Z,19.90
2018-12-26T11:55:23.800Z,17.93
2018-12-26T11:57:55.706Z,19.13
2018-12-26T12:00:24.495Z,19.20
2018-12-26T12:02:53.523Z,18.53
2018-12-26T12:05:22.525Z,20.63
2018-12-26T12:07:51.479Z,18.17
2018-12-26T12:10:20.412Z,18.70
2018-12-26T12:12:49.293Z,19.37
2018-12-26T12:15:18.840Z,16.57
2018-12-26T12:17:47.768Z,20.63
2018-12-26T12:20:16.801Z,19.73
2018-12-26T12:22:46.109Z,18.97
2018-12-26T12:25:14.928Z,17.93
2018-12-26T12:27:44.580Z,18.67
2018-12-26T12:30:13.372Z,17.47
2018-12-26T12:32:42.234Z,18.70
2018-12-26T12:35:11.303Z,16.70
2018-12-26T12:37:40.513Z,19.40
2018-12-26T12:40:11.192Z,19.03
2018-12-26T12:42:40.013Z,17.20
2018-12-26T12:45:09.384Z,17.13
2018-12-26T12:47:38.518Z,19.73
2018-12-26T12:50:07.628Z,19.97
2018-12-26T12:52:36.661Z,18.27
2018-12-26T12:55:06.646Z,19.90
2018-12-26T12:57:35.602Z,21.20
2018-12-26T13:00:04.714Z,18.87
2018-12-26T13:02:33.679Z,18.97
2018-12-26T13:05:02.676Z,18.03
2018-12-26T13:07:31.477Z,17.97
2018-12-26T13:10:00.284Z,19.97
2018-12-26T13:12:29.561Z,18.83
2018-12-26T13:14:58.489Z,19.37
2018-12-26T13:17:27.273Z,20.67
2018-12-26T13:19:56.085Z,16.60
2018-12-26T13:22:24.909Z,16.40
2018-12-26T13:24:57.046Z,17.70
2018-12-26T13:27:25.961Z,18.13
2018-12-26T13:29:54.866Z,17.87
2018-12-26T13:32:23.656Z,16.63
2018-12-26T13:34:52.478Z,17.40
2018-12-26T13:37:21.881Z,17.93
2018-12-26T13:39:51.105Z,17.47
2018-12-26T13:42:20.228Z,15.40
2018-12-26T13:44:49.047Z,16.60
2018-12-26T13:47:17.842Z,16.67
2018-12-26T13:49:46.650Z,14.70
2018-12-26T13:52:15.689Z,16.63
2018-12-26T13:54:44.536Z,15.47
2018-12-26T13:57:13.409Z,15.13
2018-12-26T13:59:42.221Z,16.00
2018-12-26T14:02:11.273Z,18.03
2018-12-26T14:04:40.357Z,14.53
2018-12-26T14:07:09.168Z,15.80
2018-12-26T14:09:38.220Z,15.27
2018-12-26T14:12:07.117Z,17.03
2018-12-26T14:14:36.445Z,17.27
2018-12-26T14:17:05.249Z,16.37
2018-12-26T14:19:34.466Z,15.63
2018-12-26T14:22:03.274Z,16.00
2018-12-26T14:24:32.565Z,17.57
2018-12-26T14:27:01.664Z,15.27
2018-12-26T14:29:30.791Z,16.60
2018-12-26T14:31:59.622Z,17.53
2018-12-26T14:34:28.415Z,15.73
2018-12-26T14:36:57.260Z,15.47
2018-12-26T14:39:26.392Z,17.00
2018-12-26T14:41:55.535Z,17.63
2018-12-26T14:44:24.349Z,14.50
2018-12-26T14:46:53.289Z,16.50
2018-12-26T14:49:22.139Z,18.20
2018-12-26T14:51:51.040Z,15.27
2018-12-26T14:54:19.838Z,18.10
2018-12-26T14:56:48.953Z,17.80
2018-12-26T14:59:18.020Z,17.10
2018-12-26T15:01:47.447Z,18.03
2018-12-26T15:04:16.529Z,17.40
2018-12-26T15:06:45.370Z,18.57
2018-12-26T15:09:14.493Z,16.17
2018-12-26T15:11:43.301Z,21.37
2018-12-26T15:14:12.125Z,18.13
2018-12-26T15:16:40.959Z,20.23
2018-12-26T15:19:16.830Z,20.90
2018-12-26T15:21:45.754Z,19.40
2018-12-26T15:24:14.607Z,20.00
2018-12-26T15:26:43.716Z,19.10
2018-12-26T15:29:12.847Z,18.80
2018-12-26T15:31:41.733Z,19.33
2018-12-26T15:34:10.682Z,18.60
2018-12-26T15:36:39.888Z,18.43
2018-12-26T15:39:11.080Z,21.50
2018-12-26T15:41:40.801Z,19.83
2018-12-26T15:44:10.228Z,19.63
2018-12-26T15:46:39.249Z,20.33
2018-12-26T15:49:09.663Z,19.23
2018-12-26T15:51:38.859Z,20.03
2018-12-26T15:54:07.721Z,21.63
2018-12-26T15:56:36.592Z,22.87
2018-12-26T15:59:05.680Z,20.13
2018-12-26T16:01:34.538Z,22.60
2018-12-26T16:04:03.377Z,23.13
2018-12-26T16:06:32.200Z,26.07
2018-12-26T16:09:01.545Z,29.77
2018-12-26T16:11:30.665Z,29.43
2018-12-26T16:13:59.900Z,28.27
2018-12-26T16:16:29.233Z,25.13
2018-12-26T16:18:58.066Z,24.53
2018-12-26T16:21:26.881Z,24.03
2018-12-26T16:23:56.248Z,23.47
2018-12-26T16:26:25.622Z,27.53
2018-12-26T16:28:54.691Z,24.23
2018-12-26T16:31:23.889Z,25.53
2018-12-26T16:33:52.853Z,24.60
2018-12-26T16:36:21.762Z,25.73
2018-12-26T16:38:51.084Z,25.80
2018-12-26T16:41:20.184Z,23.80
2018-12-26T16:43:49.340Z,26.73
2018-12-26T16:46:18.445Z,25.73
2018-12-26T16:48:48.128Z,24.37
2018-12-26T16:51:16.986Z,23.97
2018-12-26T16:53:46.437Z,24.10
2018-12-26T16:56:15.712Z,25.13
2018-12-26T16:58:44.532Z,24.63
2018-12-26T17:01:13.325Z,27.70
2018-12-26T17:03:42.141Z,25.87
2018-12-26T17:06:11.484Z,25.50
2018-12-26T17:08:40.300Z,27.27
2018-12-26T17:11:09.338Z,27.50
2018-12-26T17:13:38.620Z,23.40
2018-12-26T17:16:07.620Z,24.37
2018-12-26T17:18:36.469Z,24.73
2018-12-26T17:21:05.333Z,24.37
2018-12-26T17:23:34.153Z,26.27
2018-12-26T17:26:03.000Z,25.17
2018-12-26T17:28:32.448Z,24.80
2018-12-26T17:31:04.277Z,26.00
2018-12-26T17:33:32.780Z,28.33
2018-12-26T17:36:01.653Z,26.63
2018-12-26T17:38:30.572Z,25.37
2018-12-26T17:40:59.353Z,24.67
2018-12-26T17:43:28.183Z,24.73
2018-12-26T17:45:56.961Z,26.27
2018-12-26T17:48:25.764Z,28.00
2018-12-26T17:50:54.582Z,29.63
2018-12-26T17:54:09.938Z,27.87
2018-12-26T17:56:44.200Z,26.20
2018-12-26T17:59:34.685Z,25.53
2018-12-26T18:02:18.251Z,24.83
2018-12-26T18:04:47.112Z,26.90
2018-12-26T18:07:15.950Z,25.87
2018-12-26T18:09:44.996Z,26.77
2018-12-26T18:12:13.950Z,26.87
2018-12-26T18:14:42.877Z,25.33
2018-12-26T18:17:11.940Z,24.80
2018-12-26T18:19:41.448Z,28.63
2018-12-26T18:22:10.780Z,28.67
2018-12-26T18:24:40.026Z,28.20
2018-12-26T18:27:09.141Z,31.07
2018-12-26T18:29:38.099Z,30.57
2018-12-26T18:32:07.717Z,30.10
2018-12-26T18:34:37.039Z,30.47
2018-12-26T18:37:05.926Z,32.07
2018-12-26T18:39:34.743Z,33.77
2018-12-26T18:42:03.686Z,40.50
2018-12-26T18:44:32.945Z,51.30
2018-12-26T18:47:02.033Z,45.67
2018-12-26T18:49:31.016Z,32.40
2018-12-26T18:52:00.172Z,29.77
2018-12-26T18:54:29.249Z,28.67
2018-12-26T18:56:58.128Z,29.90
2018-12-26T18:59:27.416Z,29.47
2018-12-26T19:01:56.217Z,27.67
2018-12-26T19:04:26.737Z,31.07
2018-12-26T19:06:55.584Z,29.80
2018-12-26T19:09:24.614Z,29.40
2018-12-26T19:11:53.733Z,26.93
2018-12-26T19:14:22.611Z,29.57
2018-12-26T19:16:51.482Z,27.73
2018-12-26T19:19:20.410Z,30.20
2018-12-26T19:21:49.220Z,27.83
2018-12-26T19:24:18.035Z,27.63
2018-12-26T19:26:47.021Z,27.00
2018-12-26T19:29:15.836Z,26.93
2018-12-26T19:31:46.240Z,25.70
2018-12-26T19:34:15.173Z,27.03
2018-12-26T19:36:44.008Z,27.80
2018-12-26T19:39:12.838Z,29.87
2018-12-26T19:41:43.305Z,26.83
2018-12-26T19:44:12.340Z,30.10
2018-12-26T19:46:41.149Z,28.03
2018-12-26T19:49:10.130Z,29.00
2018-12-26T19:51:39.002Z,34.57
2018-12-26T19:54:07.913Z,32.15
2018-12-26T19:56:36.803Z,31.73
2018-12-26T19:59:05.709Z,32.60
2018-12-26T20:01:35.112Z,31.07
2018-12-26T20:04:04.042Z,27.97
2018-12-26T20:06:32.886Z,30.87
2018-12-26T20:09:01.735Z,29.07
2018-12-26T20:11:30.581Z,29.43
2018-12-26T20:13:59.395Z,27.40
2018-12-26T20:16:28.289Z,30.43
2018-12-26T20:18:57.089Z,29.73
2018-12-26T20:21:26.346Z,28.93
2018-12-26T20:23:55.164Z,27.47
2018-12-26T20:26:24.071Z,30.83
2018-12-26T20:28:52.992Z,27.30
2018-12-26T20:31:22.880Z,25.30
2018-12-26T20:33:52.024Z,31.73
2018-12-26T20:36:20.846Z,30.90
2018-12-26T20:38:49.776Z,32.23
2018-12-26T20:41:18.809Z,31.30
2018-12-26T20:43:47.795Z,31.63
2018-12-26T20:46:16.796Z,34.90
2018-12-26T20:48:45.701Z,30.73
2018-12-26T20:51:14.523Z,32.30
2018-12-26T20:53:43.296Z,29.70
2018-12-26T20:56:12.445Z,29.43
2018-12-26T20:58:41.855Z,30.93
2018-12-26T21:01:10.732Z,29.77
2018-12-26T21:03:39.766Z,32.77
2018-12-26T21:06:09.041Z,31.00
2018-12-26T21:08:37.923Z,26.73
2018-12-26T21:11:07.178Z,31.37
2018-12-26T21:13:36.242Z,32.93
2018-12-26T21:16:05.116Z,28.37
2018-12-26T21:18:34.136Z,32.13
2018-12-26T21:21:03.091Z,28.73
2018-12-26T21:23:31.970Z,33.47
2018-12-26T21:26:01.821Z,32.60
2018-12-26T21:28:30.754Z,33.57
2018-12-26T21:30:59.592Z,34.40
2018-12-26T21:33:28.486Z,27.93
2018-12-26T21:35:57.319Z,31.43
2018-12-26T21:38:26.470Z,31.77
2018-12-26T21:40:55.440Z,31.20
2018-12-26T21:43:24.388Z,31.83
2018-12-26T21:45:53.692Z,31.27
2018-12-26T21:48:22.486Z,34.63
2018-12-26T21:50:51.533Z,37.70
2018-12-26T21:53:20.505Z,33.70
2018-12-26T21:55:53.646Z,33.33
2018-12-26T21:58:22.752Z,30.93
2018-12-26T22:00:51.747Z,30.00
2018-12-26T22:03:20.695Z,31.60
2018-12-26T22:05:49.874Z,31.90
2018-12-26T22:08:19.086Z,33.73
2018-12-26T22:10:47.949Z,31.50
2018-12-26T22:13:18.411Z,30.63
2018-12-26T22:15:47.689Z,29.07
2018-12-26T22:18:16.520Z,28.97
2018-12-26T22:20:45.481Z,26.83
2018-12-26T22:23:14.434Z,33.60
2018-12-26T22:25:43.485Z,27.63
2018-12-26T22:28:12.756Z,29.57
2018-12-26T22:30:41.705Z,35.10
2018-12-26T22:33:10.686Z,28.23
2018-12-26T22:35:39.661Z,29.03
2018-12-26T22:38:08.807Z,29.50
2018-12-26T22:40:37.973Z,29.67
2018-12-26T22:43:06.900Z,28.30
2018-12-26T22:45:43.626Z,30.63
2018-12-26T22:48:06.521Z,30.20
2018-12-26T22:50:35.345Z,31.70
2018-12-26T22:53:04.726Z,29.60
2018-12-26T22:55:33.677Z,29.70
2018-12-26T22:58:06.860Z,30.63
2018-12-26T23:00:43.945Z,29.27
2018-12-26T23:03:12.758Z,28.23
2018-12-26T23:05:41.681Z,32.17
2018-12-26T23:08:10.658Z,28.47
2018-12-26T23:10:39.449Z,27.67
2018-12-26T23:13:08.374Z,30.50
2018-12-26T23:15:37.725Z,28.37
2018-12-26T23:18:06.848Z,30.93
2018-12-26T23:20:35.942Z,27.73
2018-12-26T23:23:04.725Z,28.80
2018-12-26T23:25:34.057Z,26.17
2018-12-26T23:28:02.850Z,28.10
2018-12-26T23:30:31.741Z,26.73
2018-12-26T23:33:00.708Z,28.53
2018-12-26T23:35:29.491Z,28.60
2018-12-26T23:37:58.273Z,28.57
2018-12-26T23:40:27.509Z,28.63
2018-12-26T23:42:56.652Z,31.40
2018-12-26T23:45:25.538Z,32.83
2018-12-26T23:47:54.649Z,28.77
2018-12-26T23:50:23.690Z,34.50
2018-12-26T23:52:52.467Z,30.63
2018-12-26T23:55:22.467Z,29.80
2018-12-26T23:57:51.240Z,30.43
